Time;durP1;ratioP1;P1;durP2;ratioP2;P2;SDS_P1;SDS_P2;PMS_P1;PMS_P2;Temp;Humidity;BMP_temperature;BMP_pressure;BME280_temperature;BME280_humidity;BME280_pressure;Samples;Min_cycle;Max_cycle;Signal;HPM_P1;HPM_P2
2023/07/22 00:02:13;;;;;;;11.90;5.53;;;12.60;99.90;;;;;;5010472;28;20723;-89
2023/07/22 00:04:39;;;;;;;14.52;5.68;;;12.60;99.90;;;;;;5011867;28;20815;-88
2023/07/22 00:07:05;;;;;;;12.53;5.23;;;12.60;99.90;;;;;;5027482;28;20416;-89
2023/07/22 00:09:34;;;;;;;11.38;5.20;;;12.70;99.90;;;;;;5027575;28;20496;-87
2023/07/22 00:11:59;;;;;;;11.38;4.97;;;12.70;99.90;;;;;;5027765;28;20547;-88
2023/07/22 00:14:25;;;;;;;12.65;6.45;;;12.70;99.90;;;;;;5010730;28;20837;-89
2023/07/22 00:16:51;;;;;;;14.60;7.10;;;12.70;99.90;;;;;;5028388;28;20885;-89
2023/07/22 00:19:16;;;;;;;12.17;5.53;;;12.80;99.90;;;;;;5010109;28;20421;-88
2023/07/22 00:21:42;;;;;;;10.50;5.40;;;12.60;99.90;;;;;;5028272;28;20467;-89
2023/07/22 00:24:08;;;;;;;11.40;5.97;;;12.60;99.90;;;;;;5010813;28;20409;-88
2023/07/22 00:26:34;;;;;;;11.75;5.07;;;12.60;99.90;;;;;;5027680;28;20421;-88
2023/07/22 00:28:59;;;;;;;14.23;6.30;;;12.60;99.90;;;;;;5027558;28;20418;-88
2023/07/22 00:31:25;;;;;;;9.83;5.20;;;12.50;99.90;;;;;;5010810;28;20428;-87
2023/07/22 00:33:51;;;;;;;12.00;5.25;;;12.50;99.90;;;;;;5027565;28;20429;-88
2023/07/22 00:36:17;;;;;;;8.75;4.35;;;12.50;99.90;;;;;;5026740;28;20788;-88
2023/07/22 00:38:43;;;;;;;9.27;4.85;;;12.50;99.90;;;;;;5011376;28;20444;-88
2023/07/22 00:41:08;;;;;;;10.90;5.43;;;12.40;99.90;;;;;;5026976;28;20409;-89
2023/07/22 00:43:34;;;;;;;8.77;5.07;;;12.40;99.90;;;;;;5011497;28;20424;-87
2023/07/22 00:45:59;;;;;;;7.20;4.38;;;12.30;99.90;;;;;;5026864;28;20456;-88
2023/07/22 00:48:26;;;;;;;12.87;5.30;;;12.30;99.90;;;;;;5010558;28;20498;-87
2023/07/22 00:50:52;;;;;;;11.35;6.35;;;12.20;99.90;;;;;;5010821;28;20424;-87
2023/07/22 00:53:18;;;;;;;8.47;5.00;;;12.20;99.90;;;;;;5009718;28;20405;-87
2023/07/22 00:55:45;;;;;;;11.90;6.00;;;12.40;99.90;;;;;;5008275;28;20411;-88
2023/07/22 00:58:11;;;;;;;12.68;6.57;;;12.20;99.90;;;;;;4990630;28;20437;-87
2023/07/22 01:00:36;;;;;;;11.50;6.60;;;12.40;99.90;;;;;;4991347;28;20909;-86
2023/07/22 01:03:03;;;;;;;16.02;6.60;;;12.60;99.90;;;;;;4993536;28;20429;-88
2023/07/22 01:05:30;;;;;;;11.97;6.53;;;12.60;99.90;;;;;;5011132;28;20934;-88
2023/07/22 01:07:56;;;;;;;12.63;6.50;;;12.40;99.90;;;;;;5011325;28;21041;-87
2023/07/22 01:10:22;;;;;;;11.75;6.40;;;12.40;99.90;;;;;;5010375;28;20455;-88
2023/07/22 01:12:47;;;;;;;17.88;8.35;;;12.20;99.90;;;;;;4995310;28;20410;-88
2023/07/22 01:15:14;;;;;;;14.23;7.38;;;12.40;99.90;;;;;;5010200;28;20422;-88
2023/07/22 01:17:39;;;;;;;12.18;6.82;;;12.20;99.90;;;;;;5011801;28;20418;-88
2023/07/22 01:20:06;;;;;;;12.93;7.03;;;12.10;99.90;;;;;;5010320;28;20434;-88
2023/07/22 01:22:36;;;;;;;18.35;8.25;;;12.10;99.90;;;;;;4994748;28;20493;-88
2023/07/22 01:25:02;;;;;;;15.93;6.85;;;12.10;99.90;;;;;;5010567;28;20521;-87
2023/07/22 01:27:29;;;;;;;12.53;6.43;;;12.10;99.90;;;;;;5010623;28;20411;-88
2023/07/22 01:29:55;;;;;;;17.20;7.88;;;12.00;99.90;;;;;;5011160;28;20407;-87
2023/07/22 01:32:20;;;;;;;12.05;6.78;;;12.00;99.90;;;;;;4993994;28;20410;-88
2023/07/22 01:34:46;;;;;;;8.30;5.57;;;12.00;99.90;;;;;;5012023;28;20453;-89
2023/07/22 01:37:12;;;;;;;11.20;5.97;;;12.00;99.90;;;;;;5009664;28;20422;-89
2023/07/22 01:39:37;;;;;;;12.40;6.33;;;12.10;99.90;;;;;;4994671;28;20443;-88
2023/07/22 01:42:03;;;;;;;11.50;6.20;;;11.80;99.90;;;;;;4993950;28;20418;-88
2023/07/22 01:44:29;;;;;;;9.52;5.32;;;11.90;99.90;;;;;;5010971;28;20407;-89
2023/07/22 01:46:55;;;;;;;10.20;6.20;;;12.10;99.90;;;;;;5010942;28;20415;-88
2023/07/22 01:49:21;;;;;;;16.30;7.53;;;12.40;99.90;;;;;;5010299;28;20426;-89
2023/07/22 01:51:47;;;;;;;11.25;5.55;;;11.70;99.90;;;;;;4995159;28;20411;-88
2023/07/22 01:54:12;;;;;;;20.87;8.27;;;12.00;99.90;;;;;;5010184;28;20778;-88
2023/07/22 01:56:39;;;;;;;11.23;6.53;;;11.50;99.90;;;;;;5010748;28;20423;-88
2023/07/22 01:59:05;;;;;;;17.08;8.18;;;11.80;99.90;;;;;;4993549;28;20431;-88
2023/07/22 02:01:31;;;;;;;24.10;9.02;;;11.90;99.90;;;;;;4994466;28;20805;-88
2023/07/22 02:03:57;;;;;;;15.05;7.63;;;11.60;99.90;;;;;;4993936;28;20415;-89
2023/07/22 02:06:23;;;;;;;11.93;7.10;;;11.60;99.90;;;;;;5010012;28;20411;-87
2023/07/22 02:08:49;;;;;;;10.60;5.47;;;11.60;99.90;;;;;;5011135;28;20512;-88
2023/07/22 02:11:16;;;;;;;15.15;8.23;;;11.50;99.90;;;;;;5009206;28;20458;-89
2023/07/22 02:13:41;;;;;;;12.55;7.20;;;11.40;99.90;;;;;;4994107;28;20424;-88
2023/07/22 02:16:11;;;;;;;14.20;7.45;;;11.50;99.90;;;;;;4992515;28;20415;-89
2023/07/22 02:18:37;;;;;;;13.75;8.65;;;11.40;99.90;;;;;;4993548;28;20802;-88
2023/07/22 02:21:03;;;;;;;16.30;8.20;;;11.30;99.90;;;;;;4993536;28;20438;-87
2023/07/22 02:23:29;;;;;;;13.63;7.88;;;11.30;99.90;;;;;;5009693;28;20450;-88
2023/07/22 02:25:54;;;;;;;31.55;7.15;;;11.60;99.90;;;;;;4994036;28;20415;-87
2023/07/22 02:28:21;;;;;;;12.85;6.65;;;11.20;99.90;;;;;;4993203;28;21006;-89
2023/07/22 02:30:52;;;;;;;12.60;6.47;;;11.40;99.90;;;;;;4994258;28;20415;-88
2023/07/22 02:33:18;;;;;;;10.07;5.53;;;11.50;99.90;;;;;;5009096;28;20415;-88
2023/07/22 02:35:44;;;;;;;16.75;6.63;;;11.30;99.90;;;;;;4993431;28;20411;-88
2023/07/22 02:38:10;;;;;;;9.85;5.75;;;11.10;99.90;;;;;;4992751;28;20448;-88
2023/07/22 02:40:38;;;;;;;10.60;5.25;;;11.20;99.90;;;;;;4993352;28;20465;-88
2023/07/22 02:43:06;;;;;;;14.70;6.43;;;11.00;99.90;;;;;;4993135;28;20553;-89
2023/07/22 02:45:32;;;;;;;11.23;5.45;;;10.80;99.90;;;;;;5009107;28;20790;-88
2023/07/22 02:47:58;;;;;;;12.95;5.80;;;11.30;99.90;;;;;;4993550;28;20415;-88
2023/07/22 02:50:23;;;;;;;11.25;5.45;;;10.90;99.90;;;;;;4992178;28;20894;-88
2023/07/22 02:52:50;;;;;;;11.47;6.30;;;10.90;99.90;;;;;;4993451;28;20494;-88
2023/07/22 02:55:20;;;;;;;10.50;6.13;;;11.00;99.90;;;;;;4992572;28;20406;-88
2023/07/22 02:57:47;;;;;;;10.38;4.97;;;11.00;99.90;;;;;;4993212;28;21192;-88
2023/07/22 03:00:17;;;;;;;8.80;5.22;;;10.90;99.90;;;;;;4992684;28;20470;-88
2023/07/22 03:02:43;;;;;;;11.57;5.67;;;10.90;99.90;;;;;;4991918;28;20403;-89
2023/07/22 03:05:09;;;;;;;9.30;4.73;;;10.80;99.90;;;;;;5009607;28;20878;-87
2023/07/22 03:07:37;;;;;;;11.23;5.93;;;10.90;99.90;;;;;;4991963;28;20828;-88
2023/07/22 03:10:03;;;;;;;10.90;5.50;;;11.00;99.90;;;;;;5009001;28;20403;-88
2023/07/22 03:12:29;;;;;;;11.57;5.65;;;10.80;99.90;;;;;;5008395;28;20507;-87
2023/07/22 03:14:54;;;;;;;10.73;5.10;;;10.80;99.90;;;;;;4992963;28;20841;-90
2023/07/22 03:17:20;;;;;;;8.70;4.90;;;11.00;99.90;;;;;;4992883;28;20409;-89
2023/07/22 03:19:46;;;;;;;23.20;7.88;;;10.80;99.90;;;;;;4992013;28;20431;-90
2023/07/22 03:22:16;;;;;;;9.60;5.18;;;10.60;99.90;;;;;;4993265;28;20476;-88
2023/07/22 03:24:42;;;;;;;14.23;6.15;;;10.80;99.90;;;;;;4991019;28;20466;-88
2023/07/22 03:27:07;;;;;;;11.35;6.28;;;10.80;99.90;;;;;;5009032;28;20407;-88
2023/07/22 03:29:33;;;;;;;13.90;7.05;;;10.70;99.90;;;;;;4991694;28;20933;-88
2023/07/22 03:31:59;;;;;;;11.53;5.80;;;10.80;99.90;;;;;;4991895;28;20480;-88
2023/07/22 03:34:29;;;;;;;11.63;7.18;;;10.80;99.90;;;;;;5008125;28;20415;-88
2023/07/22 03:36:55;;;;;;;24.65;13.15;;;10.90;99.90;;;;;;5008493;28;20415;-89
2023/07/22 03:39:21;;;;;;;29.13;18.08;;;10.90;99.90;;;;;;5008843;28;20431;-88
2023/07/22 03:41:46;;;;;;;23.15;14.85;;;11.00;99.90;;;;;;5007979;28;20569;-89
2023/07/22 03:44:12;;;;;;;23.40;16.23;;;11.00;99.90;;;;;;5008851;28;20419;-88
2023/07/22 03:46:38;;;;;;;32.70;19.10;;;11.10;99.90;;;;;;5007522;28;20411;-88
2023/07/22 03:49:04;;;;;;;30.75;21.27;;;11.20;99.90;;;;;;4992188;28;20411;-88
2023/07/22 03:51:30;;;;;;;29.02;22.20;;;11.20;99.90;;;;;;4991291;28;20766;-88
2023/07/22 03:53:55;;;;;;;27.37;19.43;;;11.20;99.90;;;;;;4991849;28;20421;-88
2023/07/22 03:56:23;;;;;;;27.73;18.67;;;11.20;99.90;;;;;;4991730;28;20968;-87
2023/07/22 03:58:49;;;;;;;32.67;21.77;;;11.30;99.90;;;;;;4990978;28;20446;-88
2023/07/22 04:01:15;;;;;;;25.73;18.42;;;11.30;99.90;;;;;;5008882;28;20423;-88
2023/07/22 04:03:41;;;;;;;26.23;18.85;;;11.70;99.90;;;;;;4991256;28;20427;-88
2023/07/22 04:06:06;;;;;;;27.67;17.57;;;11.60;99.90;;;;;;5008352;28;20918;-87
2023/07/22 04:08:32;;;;;;;27.13;17.50;;;11.50;99.90;;;;;;4990847;28;20407;-87
2023/07/22 04:10:58;;;;;;;33.47;19.48;;;11.60;99.90;;;;;;5007724;28;20419;-87
2023/07/22 04:13:25;;;;;;;29.00;18.48;;;11.70;99.90;;;;;;4991575;28;20421;-87
2023/07/22 04:15:51;;;;;;;31.08;18.30;;;12.20;99.90;;;;;;4991377;28;20940;-87
2023/07/22 04:18:17;;;;;;;29.90;17.47;;;11.90;99.90;;;;;;5008391;28;20407;-87
2023/07/22 04:20:44;;;;;;;28.50;16.33;;;11.90;99.90;;;;;;5007216;28;20835;-88
2023/07/22 04:23:10;;;;;;;29.02;15.63;;;12.00;99.90;;;;;;4991915;28;20465;-88
2023/07/22 04:25:39;;;;;;;27.63;15.38;;;12.00;99.90;;;;;;5006929;28;20423;-89
2023/07/22 04:28:05;;;;;;;25.98;14.35;;;11.90;99.90;;;;;;5008195;28;20477;-87
2023/07/22 04:30:31;;;;;;;23.40;12.98;;;12.10;99.90;;;;;;4990888;28;20476;-88
2023/07/22 04:32:56;;;;;;;23.75;13.02;;;12.30;99.90;;;;;;5007284;28;20406;-88
2023/07/22 04:35:22;;;;;;;29.80;13.87;;;12.30;99.90;;;;;;4991592;28;20453;-88
2023/07/22 04:37:48;;;;;;;23.67;12.52;;;13.10;99.90;;;;;;4994116;28;20498;-88
2023/07/22 04:40:14;;;;;;;26.83;12.90;;;12.50;99.90;;;;;;4995795;28;20445;-88
2023/07/22 04:42:41;;;;;;;25.40;13.63;;;12.40;99.90;;;;;;5010647;28;20462;-87
2023/07/22 04:45:09;;;;;;;27.92;13.85;;;12.30;99.90;;;;;;5012001;28;20879;-88
2023/07/22 04:47:35;;;;;;;27.73;13.75;;;12.30;99.90;;;;;;4994531;28;20411;-88
2023/07/22 04:50:01;;;;;;;24.23;13.48;;;12.40;99.90;;;;;;4995213;28;20415;-89
2023/07/22 04:52:26;;;;;;;24.03;12.67;;;12.50;99.90;;;;;;4994875;28;20414;-87
2023/07/22 04:54:53;;;;;;;25.60;13.77;;;12.90;99.90;;;;;;5011196;28;20897;-88
2023/07/22 04:57:20;;;;;;;25.48;14.10;;;12.70;99.90;;;;;;5011615;28;20411;-87
2023/07/22 04:59:46;;;;;;;26.30;13.82;;;12.80;99.90;;;;;;4994106;28;20441;-88
2023/07/22 05:02:12;;;;;;;27.00;14.50;;;12.90;99.90;;;;;;5011952;28;20929;-89
2023/07/22 05:04:38;;;;;;;25.77;14.18;;;13.10;99.90;;;;;;4994347;28;20933;-88
2023/07/22 05:07:04;;;;;;;23.83;13.77;;;13.20;99.90;;;;;;4992443;28;20454;-89
2023/07/22 05:09:29;;;;;;;25.52;14.05;;;13.30;99.90;;;;;;4974338;28;20728;-88
2023/07/22 05:11:55;;;;;;;26.10;14.57;;;13.30;99.90;;;;;;4975279;28;20429;-89
2023/07/22 05:14:21;;;;;;;25.35;14.55;;;13.50;99.90;;;;;;4998243;28;20427;-88
2023/07/22 05:16:46;;;;;;;30.38;15.60;;;13.60;99.90;;;;;;5007232;28;20496;-89
2023/07/22 05:19:12;;;;;;;26.53;14.77;;;14.20;99.90;;;;;;5014875;28;20792;-89
2023/07/22 05:21:38;;;;;;;19.48;12.13;;;14.00;99.90;;;;;;5030454;28;20904;-88
2023/07/22 05:24:03;;;;;;;19.13;11.93;;;14.00;99.90;;;;;;5014793;28;20920;-90
2023/07/22 05:26:30;;;;;;;19.98;11.75;;;14.20;99.90;;;;;;5014107;28;20409;-89
2023/07/22 05:28:56;;;;;;;16.98;10.52;;;14.30;99.90;;;;;;5014485;28;20417;-89
2023/07/22 05:31:22;;;;;;;18.17;10.20;;;14.40;99.90;;;;;;5031194;28;21067;-89
2023/07/22 05:33:48;;;;;;;16.60;10.75;;;14.40;99.90;;;;;;5020498;28;20422;-89
2023/07/22 05:36:13;;;;;;;15.18;8.95;;;14.50;99.90;;;;;;4983142;28;20411;-89
2023/07/22 05:38:39;;;;;;;14.50;9.30;;;14.60;99.90;;;;;;4988182;28;20463;-89
2023/07/22 05:41:04;;;;;;;15.23;9.15;;;14.70;99.90;;;;;;4987201;28;20506;-89
2023/07/22 05:43:30;;;;;;;17.10;10.50;;;14.80;99.90;;;;;;5001934;28;20514;-88
2023/07/22 05:45:56;;;;;;;16.10;9.27;;;14.80;99.90;;;;;;4989154;28;20436;-89
2023/07/22 05:48:21;;;;;;;17.13;9.97;;;14.90;99.90;;;;;;4993857;28;20756;-89
2023/07/22 05:50:47;;;;;;;16.92;9.75;;;14.90;99.90;;;;;;4994489;28;20419;-90
2023/07/22 05:53:13;;;;;;;17.05;10.93;;;15.00;99.90;;;;;;4994352;28;20928;-90
2023/07/22 05:55:39;;;;;;;16.67;10.38;;;15.20;99.90;;;;;;4992835;28;20453;-90
2023/07/22 05:58:05;;;;;;;17.03;10.63;;;15.00;99.90;;;;;;4994715;28;20774;-90
2023/07/22 06:00:33;;;;;;;16.08;10.93;;;15.00;99.90;;;;;;4992585;28;20912;-90
2023/07/22 06:02:59;;;;;;;16.80;10.30;;;15.20;99.90;;;;;;4994764;28;20510;-90
2023/07/22 06:05:24;;;;;;;16.58;10.15;;;15.10;99.90;;;;;;4993082;28;20486;-91
2023/07/22 06:07:50;;;;;;;16.77;10.40;;;15.50;99.90;;;;;;4994033;28;20482;-90
2023/07/22 06:10:16;;;;;;;16.52;11.07;;;15.90;99.90;;;;;;4993965;28;20411;-90
2023/07/22 06:12:42;;;;;;;16.20;11.07;;;15.60;99.90;;;;;;5011251;28;21043;-90
2023/07/22 06:15:08;;;;;;;13.27;10.33;;;15.70;99.90;;;;;;5011160;28;20494;-90
2023/07/22 06:17:34;;;;;;;15.70;11.50;;;15.80;99.90;;;;;;4994160;28;20922;-90
2023/07/22 06:19:59;;;;;;;14.73;11.02;;;16.30;99.90;;;;;;5011408;28;20477;-89
2023/07/22 06:22:25;;;;;;;16.90;10.85;;;16.10;99.90;;;;;;5010256;28;20467;-91
2023/07/22 06:24:50;;;;;;;17.27;11.33;;;16.10;99.90;;;;;;4994841;28;20498;-90
2023/07/22 06:27:16;;;;;;;18.88;11.95;;;16.00;99.90;;;;;;4994016;28;20422;-90
2023/07/22 06:29:42;;;;;;;16.27;11.43;;;16.10;99.90;;;;;;4994860;28;20423;-90
2023/07/22 06:32:08;;;;;;;16.13;11.05;;;16.50;99.90;;;;;;4994121;28;20410;-90
2023/07/22 06:34:33;;;;;;;14.20;10.67;;;16.30;99.90;;;;;;5010398;28;20465;-89
2023/07/22 06:36:59;;;;;;;16.88;11.98;;;16.40;99.90;;;;;;4994678;28;20444;-89
2023/07/22 06:39:24;;;;;;;15.00;10.87;;;16.40;99.90;;;;;;5009786;28;20487;-91
2023/07/22 06:41:50;;;;;;;15.07;11.00;;;16.50;99.90;;;;;;4994564;28;20407;-90
2023/07/22 06:44:15;;;;;;;17.73;12.10;;;16.80;99.90;;;;;;4993371;28;20945;-90
2023/07/22 06:46:41;;;;;;;14.45;10.80;;;16.80;99.90;;;;;;4994552;28;20469;-91
2023/07/22 06:49:07;;;;;;;17.37;12.43;;;16.40;99.90;;;;;;5010126;28;20403;-90
2023/07/22 06:51:32;;;;;;;17.52;11.75;;;16.60;99.90;;;;;;4994466;28;20496;-91
2023/07/22 06:53:58;;;;;;;17.90;13.03;;;16.70;99.90;;;;;;4994290;28;20399;-91
2023/07/22 06:56:24;;;;;;;16.88;12.82;;;16.70;99.90;;;;;;4993771;28;20955;-90
2023/07/22 06:58:51;;;;;;;16.83;12.48;;;16.80;99.90;;;;;;5010084;28;20438;-91
2023/07/22 07:01:16;;;;;;;17.65;12.55;;;16.90;99.90;;;;;;4993285;28;20426;-90
2023/07/22 07:03:42;;;;;;;18.98;13.65;;;16.90;99.90;;;;;;5011309;28;20422;-90
2023/07/22 07:06:07;;;;;;;18.17;13.20;;;16.90;99.90;;;;;;4993449;28;20921;-90
2023/07/22 07:08:33;;;;;;;21.63;14.68;;;16.80;99.90;;;;;;5010840;28;20414;-91
2023/07/22 07:11:01;;;;;;;21.43;15.07;;;16.80;99.90;;;;;;4993977;28;20426;-90
2023/07/22 07:13:26;;;;;;;20.30;14.68;;;16.70;99.90;;;;;;4993846;28;20814;-90
2023/07/22 07:15:52;;;;;;;20.07;14.67;;;16.70;99.90;;;;;;4994787;28;20407;-91
2023/07/22 07:18:18;;;;;;;19.08;14.57;;;16.90;99.90;;;;;;5009906;28;20425;-90
2023/07/22 07:20:44;;;;;;;18.47;13.90;;;16.80;99.90;;;;;;5011062;28;20437;-91
2023/07/22 07:23:10;;;;;;;18.17;13.70;;;17.10;99.90;;;;;;5009808;28;20494;-91
2023/07/22 07:25:35;;;;;;;18.80;13.40;;;17.40;99.90;;;;;;4993800;28;20470;-90
2023/07/22 07:28:01;;;;;;;16.38;12.18;;;17.60;99.90;;;;;;4994228;28;20933;-91
2023/07/22 07:30:27;;;;;;;13.87;10.87;;;17.80;99.90;;;;;;5010238;28;20443;-91
2023/07/22 07:32:52;;;;;;;16.48;12.20;;;17.80;99.90;;;;;;4993731;28;20448;-91
2023/07/22 07:35:19;;;;;;;15.40;11.57;;;17.90;99.90;;;;;;4992980;28;20437;-90
2023/07/22 07:37:44;;;;;;;14.80;10.18;;;18.00;99.90;;;;;;5006715;28;20420;-92
2023/07/22 07:40:11;;;;;;;12.07;9.90;;;18.10;99.90;;;;;;5005665;28;20514;-91
2023/07/22 07:42:36;;;;;;;12.50;9.70;;;18.10;99.90;;;;;;4990298;28;20432;-90
2023/07/22 07:45:02;;;;;;;11.85;9.27;;;18.60;99.90;;;;;;4989756;28;20516;-91
2023/07/22 07:47:28;;;;;;;12.13;9.68;;;18.20;99.90;;;;;;4989909;28;20471;-91
2023/07/22 07:49:53;;;;;;;10.73;8.57;;;18.40;99.90;;;;;;4990084;28;20432;-91
2023/07/22 07:52:19;;;;;;;12.17;9.60;;;18.50;99.90;;;;;;5006181;28;20508;-91
2023/07/22 07:54:45;;;;;;;11.35;9.23;;;18.50;99.90;;;;;;4990516;28;20416;-90
2023/07/22 07:57:10;;;;;;;11.20;8.45;;;18.80;99.90;;;;;;4989312;28;20408;-92
2023/07/22 07:59:36;;;;;;;10.43;7.50;;;18.90;99.90;;;;;;5006919;28;20433;-91
2023/07/22 08:02:04;;;;;;;10.57;7.85;;;18.60;99.90;;;;;;4989471;28;20412;-91
2023/07/22 08:04:29;;;;;;;9.95;8.05;;;18.80;99.90;;;;;;4989606;28;20506;-92
2023/07/22 08:06:55;;;;;;;9.23;7.60;;;19.10;99.90;;;;;;5005279;28;20456;-91
2023/07/22 08:09:21;;;;;;;9.77;7.70;;;19.10;99.90;;;;;;5007045;28;21245;-90
2023/07/22 08:11:46;;;;;;;9.95;7.82;;;19.50;99.90;;;;;;5008976;28;20461;-90
2023/07/22 08:14:13;;;;;;;9.07;7.63;;;19.60;99.90;;;;;;5008665;28;20410;-89
2023/07/22 08:16:39;;;;;;;10.43;7.63;;;19.50;99.90;;;;;;5009788;28;20458;-90
2023/07/22 08:19:05;;;;;;;10.70;9.03;;;20.10;99.90;;;;;;5008776;28;20431;-90
2023/07/22 08:21:30;;;;;;;9.73;8.25;;;19.30;99.90;;;;;;5009910;28;20425;-92
2023/07/22 08:23:57;;;;;;;8.40;7.30;;;19.70;99.90;;;;;;4992326;28;20457;-89
2023/07/22 08:26:23;;;;;;;8.98;6.88;;;19.40;99.90;;;;;;4992611;28;20411;-92
2023/07/22 08:28:48;;;;;;;7.60;6.37;;;19.60;99.90;;;;;;4992796;28;20427;-91
2023/07/22 08:31:14;;;;;;;9.20;7.05;;;19.40;99.90;;;;;;5008534;28;20407;-90
2023/07/22 08:33:39;;;;;;;8.93;7.17;;;19.40;99.90;;;;;;5009295;28;20411;-90
2023/07/22 08:36:05;;;;;;;8.30;6.85;;;19.40;99.90;;;;;;4991585;28;20411;-90
2023/07/22 08:38:31;;;;;;;9.80;7.10;;;19.40;99.90;;;;;;5009498;28;20399;-90
2023/07/22 08:40:57;;;;;;;8.85;7.05;;;19.80;99.90;;;;;;4992073;28;20460;-91
2023/07/22 08:43:23;;;;;;;8.68;6.85;;;19.60;99.90;;;;;;4992941;28;20964;-91
2023/07/22 08:45:51;;;;;;;9.57;6.70;;;19.30;99.90;;;;;;4992447;28;20414;-90
2023/07/22 08:48:18;;;;;;;12.30;9.68;;;19.30;99.90;;;;;;4992386;28;20407;-91
2023/07/22 08:51:03;;;;;;;13.85;11.02;;;19.30;99.90;;;;;;4993464;28;20460;-91
2023/07/22 08:53:29;;;;;;;14.93;11.68;;;19.20;99.90;;;;;;4991808;28;20423;-92
2023/07/22 08:55:56;;;;;;;17.55;13.95;;;18.90;99.90;;;;;;4993461;28;20412;-92
2023/07/22 08:58:22;;;;;;;20.42;14.50;;;18.80;99.90;;;;;;5008283;28;20415;-90
2023/07/22 09:00:48;;;;;;;17.55;15.30;;;19.10;99.90;;;;;;4992624;28;20404;-91
2023/07/22 09:03:14;;;;;;;18.95;15.35;;;18.50;99.90;;;;;;4992218;28;20778;-92
2023/07/22 09:05:41;;;;;;;19.20;15.65;;;18.40;99.90;;;;;;4992899;28;20407;-91
2023/07/22 09:08:08;;;;;;;17.33;14.18;;;18.20;99.90;;;;;;4993307;28;20411;-91
2023/07/22 09:10:35;;;;;;;17.77;12.73;;;18.20;99.90;;;;;;5007936;28;20470;-89
2023/07/22 09:13:02;;;;;;;16.75;13.02;;;17.90;99.90;;;;;;4993137;28;21152;-91
2023/07/22 09:15:28;;;;;;;20.20;15.65;;;17.70;99.90;;;;;;5008013;28;20407;-93
2023/07/22 09:17:54;;;;;;;21.42;16.80;;;17.50;99.90;;;;;;4993180;28;20407;-93
2023/07/22 09:20:21;;;;;;;28.90;21.05;;;17.60;99.90;;;;;;4992295;28;20505;-92
2023/07/22 09:22:51;;;;;;;27.67;19.60;;;17.30;99.90;;;;;;4993530;28;20860;-92
2023/07/22 09:25:20;;;;;;;27.50;19.58;;;17.00;99.90;;;;;;4997025;28;20411;-93
2023/07/22 09:27:47;;;;;;;37.55;25.55;;;17.00;99.90;;;;;;4994580;28;20411;-92
2023/07/22 09:30:25;;;;;;;27.75;21.00;;;17.00;99.90;;;;;;4995851;28;20830;-92
2023/07/22 09:32:52;;;;;;;32.42;22.73;;;17.10;99.90;;;;;;4994548;28;20418;-93
2023/07/22 09:35:18;;;;;;;23.55;18.20;;;17.70;99.90;;;;;;4996040;28;20936;-93
2023/07/22 09:37:45;;;;;;;24.42;18.73;;;17.70;99.90;;;;;;4996191;28;20395;-93
2023/07/22 09:40:19;;;;;;;24.77;17.92;;;18.30;99.90;;;;;;4995022;28;20442;-93
2023/07/22 09:42:50;;;;;;;22.80;17.08;;;18.20;99.90;;;;;;4996484;28;20476;-94
2023/07/22 09:45:21;;;;;;;21.45;16.63;;;18.60;99.90;;;;;;4993229;28;20453;-93
2023/07/22 09:47:49;;;;;;;19.42;14.50;;;18.30;99.90;;;;;;4995913;28;20434;-92
2023/07/22 09:50:17;;;;;;;19.65;14.80;;;18.60;99.90;;;;;;4994531;28;20407;-94
2023/07/22 09:52:47;;;;;;;17.83;13.95;;;18.10;99.90;;;;;;4995708;28;20496;-94
2023/07/22 09:55:22;;;;;;;18.08;14.02;;;17.90;99.90;;;;;;4995628;28;20808;-94
2023/07/22 09:57:58;;;;;;;18.25;14.50;;;17.90;99.90;;;;;;4994019;28;20476;-95
2023/07/22 10:00:27;;;;;;;15.88;12.63;;;17.90;99.90;;;;;;4996056;28;20438;-94
2023/07/22 10:02:56;;;;;;;14.70;10.90;;;17.90;99.90;;;;;;4994494;28;20407;-93
2023/07/22 10:05:23;;;;;;;14.73;11.70;;;17.90;99.90;;;;;;4996037;28;20505;-92
2023/07/22 10:07:54;;;;;;;12.27;9.43;;;17.90;99.90;;;;;;4995250;28;20411;-91
2023/07/22 10:10:32;;;;;;;13.57;10.77;;;17.90;99.90;;;;;;4994980;28;20454;-92
2023/07/22 10:12:58;;;;;;;13.65;10.55;;;17.90;99.90;;;;;;4995669;28;20491;-92
2023/07/22 10:15:29;;;;;;;13.20;10.90;;;18.20;99.90;;;;;;4994072;28;20407;-93
2023/07/22 10:17:57;;;;;;;15.50;12.48;;;18.00;99.90;;;;;;4995892;28;20451;-92
2023/07/22 10:20:24;;;;;;;13.30;10.73;;;18.10;99.90;;;;;;4994305;28;20470;-92
2023/07/22 10:22:51;;;;;;;13.55;10.70;;;18.10;99.90;;;;;;4995350;28;20800;-92
2023/07/22 10:25:19;;;;;;;14.13;10.80;;;18.10;99.90;;;;;;4994980;28;20407;-94
2023/07/22 10:27:46;;;;;;;13.73;10.25;;;18.00;99.90;;;;;;4994207;28;20554;-92
2023/07/22 10:30:14;;;;;;;13.07;9.90;;;17.80;99.90;;;;;;4995933;28;20794;-91
2023/07/22 10:32:48;;;;;;;12.68;10.93;;;18.00;99.90;;;;;;4993876;28;20774;-92
2023/07/22 10:35:31;;;;;;;11.52;8.85;;;17.90;99.90;;;;;;4994141;28;20541;-92
2023/07/22 10:38:16;;;;;;;12.30;9.80;;;17.80;99.90;;;;;;4993956;28;21272;-91
2023/07/22 10:40:47;;;;;;;13.48;10.70;;;17.90;99.90;;;;;;4994051;28;20439;-93
2023/07/22 10:43:17;;;;;;;12.13;9.45;;;17.50;99.90;;;;;;4994955;28;20419;-92
2023/07/22 10:45:51;;;;;;;13.20;10.43;;;17.30;99.90;;;;;;4994394;28;20453;-92
2023/07/22 10:48:17;;;;;;;13.20;10.75;;;17.70;99.90;;;;;;4995537;28;20407;-92
2023/07/22 10:50:51;;;;;;;13.27;10.23;;;17.50;99.90;;;;;;5010391;28;20414;-91
2023/07/22 10:53:26;;;;;;;10.77;8.70;;;17.50;99.90;;;;;;5010658;28;20820;-92
2023/07/22 10:56:20;;;;;;;8.27;6.65;;;17.50;99.90;;;;;;4990344;28;21190;-92
2023/07/22 10:58:46;;;;;;;7.97;6.90;;;17.40;99.90;;;;;;4985083;28;20547;-92
2023/07/22 11:01:30;;;;;;;7.95;7.15;;;17.20;99.90;;;;;;4982783;28;20423;-92
2023/07/22 11:04:16;;;;;;;9.15;6.72;;;17.10;99.90;;;;;;4993503;28;20419;-93
2023/07/22 11:06:48;;;;;;;8.75;7.55;;;17.00;99.90;;;;;;5010464;28;20894;-94
2023/07/22 11:09:29;;;;;;;9.13;7.77;;;16.90;99.90;;;;;;4994425;28;20472;-96
2023/07/22 11:12:02;;;;;;;11.32;9.73;;;16.80;99.90;;;;;;4992902;28;20430;-94
2023/07/22 11:14:30;;;;;;;10.33;9.20;;;16.90;99.90;;;;;;4994973;28;20823;-94
2023/07/22 11:17:07;;;;;;;9.88;8.88;;;17.00;99.90;;;;;;4993169;28;20956;-93
2023/07/22 11:19:34;;;;;;;8.90;8.10;;;16.80;99.90;;;;;;4993585;28;20439;-94
2023/07/22 11:22:00;;;;;;;12.45;9.43;;;16.70;99.90;;;;;;4995753;28;20411;-94
2023/07/22 11:24:26;;;;;;;24.40;13.18;;;16.70;99.90;;;;;;4993653;28;20429;-92
2023/07/22 11:26:53;;;;;;;16.23;13.63;;;16.70;99.90;;;;;;4994856;28;20922;-93
2023/07/22 11:29:19;;;;;;;14.73;12.10;;;16.40;99.90;;;;;;5009748;28;20410;-91
2023/07/22 11:31:47;;;;;;;20.02;15.02;;;16.70;99.90;;;;;;4995382;28;20501;-93
2023/07/22 11:34:13;;;;;;;24.03;18.63;;;16.20;99.90;;;;;;4986037;28;20457;-92
2023/07/22 11:36:39;;;;;;;20.95;17.02;;;16.30;99.90;;;;;;4987620;28;20477;-92
2023/07/22 11:39:07;;;;;;;15.23;13.63;;;16.60;99.90;;;;;;4978362;28;20847;-93
2023/07/22 11:41:34;;;;;;;23.90;17.35;;;16.70;99.90;;;;;;4974016;28;20408;-93
2023/07/22 11:44:01;;;;;;;19.45;16.55;;;16.80;99.90;;;;;;4974872;28;20409;-93
2023/07/22 11:46:28;;;;;;;16.65;14.68;;;16.60;99.90;;;;;;4973537;28;20504;-93
2023/07/22 11:48:54;;;;;;;16.40;14.23;;;16.60;99.90;;;;;;4975409;28;20413;-91
2023/07/22 11:51:24;;;;;;;25.90;18.88;;;16.80;99.90;;;;;;4989608;28;20405;-92
2023/07/22 11:53:54;;;;;;;14.88;13.30;;;16.60;99.90;;;;;;4975459;28;20448;-92
2023/07/22 11:56:28;;;;;;;19.20;15.73;;;17.00;99.90;;;;;;4973892;28;20408;-93
2023/07/22 11:58:55;;;;;;;19.77;17.40;;;16.40;99.90;;;;;;4973897;28;20443;-92
2023/07/22 12:01:22;;;;;;;26.80;20.50;;;16.40;99.90;;;;;;4974407;28;20889;-92
2023/07/22 12:03:48;;;;;;;31.30;21.60;;;16.40;99.90;;;;;;4973531;28;20970;-91
2023/07/22 12:06:15;;;;;;;39.63;24.83;;;16.70;99.90;;;;;;4975289;28;20440;-92
2023/07/22 12:08:49;;;;;;;70.00;30.23;;;16.20;99.90;;;;;;4973609;28;20488;-93
2023/07/22 12:11:18;;;;;;;22.25;17.67;;;16.20;99.90;;;;;;4974712;28;21005;-93
2023/07/22 12:13:46;;;;;;;33.10;20.83;;;16.10;99.90;;;;;;4973912;28;20896;-92
2023/07/22 12:16:12;;;;;;;38.75;23.73;;;16.50;99.90;;;;;;4973813;28;20421;-93
2023/07/22 12:18:42;;;;;;;73.63;32.45;;;16.10;99.90;;;;;;4975421;28;20539;-93
2023/07/22 12:21:12;;;;;;;31.27;22.50;;;16.40;99.90;;;;;;4988001;28;20423;-93
2023/07/22 12:23:38;;;;;;;51.95;30.13;;;16.20;99.90;;;;;;4993553;28;20415;-94
2023/07/22 12:26:05;;;;;;;58.30;33.20;;;16.40;99.90;;;;;;4991839;28;20457;-93
2023/07/22 12:28:31;;;;;;;41.08;28.23;;;17.00;99.90;;;;;;4993291;28;20465;-92
2023/07/22 12:34:50;;;;;;;33.15;25.88;;;17.20;99.90;;;;;;4965545;28;20443;-94
2023/07/22 12:37:16;;;;;;;22.50;20.10;;;17.70;99.90;;;;;;4983631;28;20419;-93